Time;durP1;ratioP1;P1;durP2;ratioP2;P2;SDS_P1;SDS_P2;PMS_P1;PMS_P2;Temp;Humidity;BMP_temperature;BMP_pressure;BME280_temperature;BME280_humidity;BME280_pressure;Samples;Min_cycle;Max_cycle;Signal;HPM_P1;HPM_P2
2022/09/04 00:01:45;;;;;;;421.97;197.63;;;16.90;98.70;;;;;;5048820;28;20218;-51
2022/09/04 00:04:35;;;;;;;401.33;191.87;;;19.10;99.90;;;;;;5048417;28;20278;-51
2022/09/04 00:07:22;;;;;;;400.17;187.90;;;16.80;99.90;;;;;;5046438;28;20244;-51
2022/09/04 00:10:18;;;;;;;447.70;210.37;;;16.80;99.90;;;;;;5045794;28;20198;-51
2022/09/04 00:12:53;;;;;;;394.37;186.00;;;17.20;99.90;;;;;;5043303;28;20194;-51
2022/09/04 00:15:24;;;;;;;445.50;212.47;;;16.70;99.90;;;;;;5043492;28;20210;-51
2022/09/04 00:17:57;;;;;;;435.87;204.30;;;16.70;1.00;;;;;;5048995;28;20269;-52
2022/09/04 00:20:34;;;;;;;399.70;187.73;;;16.60;99.90;;;;;;5048249;28;20265;-50
2022/09/04 00:23:04;;;;;;;403.67;191.93;;;;;;;;;;5046550;28;20241;-51
2022/09/04 00:25:45;;;;;;;433.23;205.93;;;16.60;99.90;;;;;;5042940;28;20216;-51
2022/09/04 00:28:30;;;;;;;397.07;187.03;;;16.60;99.90;;;;;;5044677;28;20214;-51
2022/09/04 00:31:20;;;;;;;414.23;195.27;;;16.50;99.90;;;;;;5044344;28;20328;-51
2022/09/04 00:34:17;;;;;;;390.77;188.47;;;16.50;99.90;;;;;;5047424;28;20622;-51
2022/09/04 00:36:49;;;;;;;426.43;200.27;;;16.30;99.90;;;;;;5045297;28;20642;-51
2022/09/04 00:39:21;;;;;;;368.90;176.27;;;16.40;99.90;;;;;;5048345;28;20187;-51
2022/09/04 00:42:01;;;;;;;416.47;197.83;;;16.30;99.90;;;;;;5045148;28;20227;-51
2022/09/04 00:44:48;;;;;;;373.47;174.77;;;16.30;99.90;;;;;;5048797;28;20713;-51
2022/09/04 00:47:32;;;;;;;406.97;187.80;;;16.20;99.90;;;;;;5044068;28;20203;-51
2022/09/04 00:50:27;;;;;;;389.73;182.00;;;16.40;1.00;;;;;;5046407;28;20734;-52
2022/09/04 00:53:14;;;;;;;378.60;181.13;;;16.40;1.00;;;;;;5048631;28;20299;-51
2022/09/04 00:56:00;;;;;;;445.00;210.83;;;16.20;99.90;;;;;;5044331;28;20627;-51
2022/09/04 00:58:48;;;;;;;399.77;191.17;;;16.10;99.90;;;;;;5042607;28;20686;-51
2022/09/04 01:01:20;;;;;;;420.17;198.70;;;16.20;99.90;;;;;;5045369;28;20346;-51
2022/09/04 01:03:52;;;;;;;386.70;184.53;;;16.40;94.70;;;;;;5046841;28;20289;-51
2022/09/04 01:06:39;;;;;;;389.30;181.30;;;16.20;1.00;;;;;;5048131;28;20174;-51
2022/09/04 01:09:21;;;;;;;446.80;205.37;;;16.00;99.90;;;;;;5043789;28;20566;-51
2022/09/04 01:12:09;;;;;;;390.33;185.30;;;15.90;99.90;;;;;;5047632;28;20231;-51
2022/09/04 01:15:02;;;;;;;422.33;196.37;;;15.80;1.00;;;;;;5045610;28;20582;-51
2022/09/04 01:17:28;;;;;;;375.70;177.50;;;;;;;;;;5041100;28;20214;-52
2022/09/04 01:20:19;;;;;;;402.13;187.53;;;15.90;99.90;;;;;;5048315;28;20215;-51
2022/09/04 01:22:53;;;;;;;409.13;189.80;;;15.90;99.90;;;;;;5003070;28;20722;-51
2022/09/04 01:25:53;;;;;;;366.93;170.70;;;15.90;1.00;;;;;;5048727;28;20399;-52
2022/09/04 01:28:41;;;;;;;408.77;192.20;;;15.60;99.90;;;;;;5043630;28;20428;-51
2022/09/04 01:31:07;;;;;;;380.97;181.00;;;;;;;;;;5050011;28;20215;-51
2022/09/04 01:33:42;;;;;;;373.77;176.70;;;15.50;99.90;;;;;;5051074;28;20218;-51
2022/09/04 01:36:18;;;;;;;376.17;176.10;;;15.50;1.00;;;;;;5046912;28;20210;-51
2022/09/04 01:38:57;;;;;;;367.87;174.03;;;15.50;1.00;;;;;;5044290;28;20739;-51
2022/09/04 01:41:39;;;;;;;392.13;184.57;;;15.60;99.90;;;;;;5049384;28;20295;-51
2022/09/04 01:44:08;;;;;;;391.17;180.03;;;15.70;1.00;;;;;;5049836;28;20210;-51
2022/09/04 01:46:42;;;;;;;374.73;178.03;;;15.70;99.90;;;;;;5053929;28;20290;-51
2022/09/04 01:49:08;;;;;;;378.87;178.97;;;;;;;;;;5055363;28;20270;-51
2022/09/04 01:51:34;;;;;;;399.30;188.43;;;;;;;;;;5050372;28;20191;-51
2022/09/04 01:54:24;;;;;;;382.47;181.20;;;14.30;99.90;;;;;;5048133;28;20833;-51
2022/09/04 01:57:29;;;;;;;429.67;204.60;;;15.70;99.90;;;;;;5041087;28;20219;-51
2022/09/04 02:00:11;;;;;;;373.97;178.57;;;15.70;99.90;;;;;;5045858;28;20209;-50
2022/09/04 02:02:37;;;;;;;411.40;188.37;;;;;;;;;;5051569;28;20207;-51
2022/09/04 02:05:28;;;;;;;394.20;180.70;;;15.60;99.90;;;;;;5051006;28;20214;-51
2022/09/04 02:08:12;;;;;;;406.90;187.37;;;15.70;99.90;;;;;;5050214;28;20552;-51
2022/09/04 02:10:58;;;;;;;386.00;181.83;;;15.70;99.90;;;;;;5046415;28;20637;-51
2022/09/04 02:13:35;;;;;;;386.20;179.00;;;15.70;99.90;;;;;;5057794;28;20223;-51
2022/09/04 02:16:36;;;;;;;370.10;171.77;;;15.60;99.90;;;;;;5052868;28;20226;-51
2022/09/04 02:19:29;;;;;;;383.00;174.07;;;15.50;99.90;;;;;;5054686;28;20218;-51
2022/09/04 02:22:16;;;;;;;406.23;183.80;;;15.40;1.00;;;;;;5045676;28;20234;-51
2022/09/04 02:25:05;;;;;;;435.07;197.80;;;15.40;1.00;;;;;;5051394;28;20199;-52
2022/09/04 02:27:37;;;;;;;375.50;169.90;;;15.40;1.00;;;;;;5054795;28;20179;-51
2022/09/04 02:30:10;;;;;;;436.13;196.47;;;15.30;1.00;;;;;;5046498;28;20179;-51
2022/09/04 02:32:52;;;;;;;401.03;182.37;;;15.30;1.00;;;;;;5050239;28;20340;-51
2022/09/04 02:35:55;;;;;;;382.37;173.53;;;15.30;1.00;;;;;;5053250;28;20245;-51
2022/09/04 02:38:45;;;;;;;375.33;171.73;;;15.20;1.00;;;;;;5046333;28;20230;-51
2022/09/04 02:41:26;;;;;;;383.37;174.10;;;15.20;1.00;;;;;;5029809;28;20726;-51
2022/09/04 02:44:19;;;;;;;412.93;187.43;;;15.20;1.00;;;;;;5050685;28;20662;-51
2022/09/04 02:46:45;;;;;;;387.30;176.13;;;;;;;;;;5046666;28;20211;-50
2022/09/04 02:49:47;;;;;;;368.17;169.87;;;15.10;1.00;;;;;;5055060;28;20222;-52
2022/09/04 02:52:44;;;;;;;345.70;169.50;;;15.00;1.00;;;;;;5074530;22;20604;-48
2022/09/04 02:55:29;;;;;;;399.83;196.23;;;15.00;1.00;;;;;;5051647;28;20325;-48
2022/09/04 02:58:22;;;;;;;377.23;183.97;;;15.00;1.00;;;;;;5042987;28;20234;-48
2022/09/04 03:01:06;;;;;;;394.97;190.13;;;14.90;1.00;;;;;;5047429;28;20205;-49
2022/09/04 03:03:52;;;;;;;368.63;182.37;;;14.90;1.00;;;;;;5030564;28;20217;-48
2022/09/04 03:06:31;;;;;;;376.10;186.47;;;14.80;1.00;;;;;;5049595;28;20238;-48
2022/09/04 03:09:03;;;;;;;400.13;190.40;;;14.70;1.00;;;;;;5050269;28;21116;-47
2022/09/04 03:11:40;;;;;;;363.77;178.83;;;14.60;1.00;;;;;;5057031;28;20213;-48
2022/09/04 03:14:14;;;;;;;403.33;194.87;;;14.60;39.70;;;;;;5040876;28;20215;-48
2022/09/04 03:17:04;;;;;;;377.03;186.83;;;14.60;54.90;;;;;;5055651;28;20534;-48
2022/09/04 03:19:41;;;;;;;395.87;191.67;;;14.60;82.70;;;;;;5045499;28;20659;-48
2022/09/04 03:22:25;;;;;;;400.93;189.77;;;14.70;99.90;;;;;;5044003;28;20285;-48
2022/09/04 03:25:04;;;;;;;432.03;209.63;;;14.50;99.90;;;;;;5058334;28;20757;-48
2022/09/04 03:27:32;;;;;;;389.43;187.07;;;14.50;1.00;;;;;;5047604;28;20179;-48
2022/09/04 03:30:12;;;;;;;415.20;203.40;;;14.50;99.90;;;;;;5043653;28;20179;-48
2022/09/04 03:33:04;;;;;;;398.40;193.73;;;14.40;99.90;;;;;;5043244;28;20213;-48
2022/09/04 03:35:43;;;;;;;378.93;186.53;;;14.50;99.90;;;;;;5045990;28;20218;-48
2022/09/04 03:38:21;;;;;;;391.60;193.83;;;13.90;99.90;;;;;;5044769;28;20241;-48
2022/09/04 03:41:10;;;;;;;389.80;190.70;;;14.70;99.90;;;;;;5041537;28;20242;-48
2022/09/04 03:43:45;;;;;;;367.57;182.53;;;14.40;1.00;;;;;;5022875;28;20226;-48
2022/09/04 03:46:50;;;;;;;394.23;192.43;;;14.20;1.00;;;;;;5042968;28;20528;-48
2022/09/04 03:49:56;;;;;;;411.83;202.67;;;14.10;1.00;;;;;;5041973;28;20218;-48
2022/09/04 03:53:08;;;;;;;372.10;179.50;;;14.10;99.90;;;;;;5043111;28;20215;-48
2022/09/04 03:56:21;;;;;;;440.73;205.97;;;13.90;14.50;;;;;;5052058;28;20272;-47
2022/09/04 03:59:05;;;;;;;406.50;195.23;;;13.90;99.90;;;;;;5043812;28;20839;-48
2022/09/04 04:01:56;;;;;;;369.70;180.90;;;13.80;99.90;;;;;;5055863;28;20210;-48
2022/09/04 04:04:22;;;;;;;406.73;194.17;;;;;;;;;;5040793;28;20226;-48
2022/09/04 04:06:52;;;;;;;413.03;196.20;;;13.70;1.00;;;;;;5040240;28;20179;-48
2022/09/04 04:09:39;;;;;;;484.97;220.43;;;13.60;1.00;;;;;;5040048;28;20971;-48
2022/09/04 04:13:03;;;;;;;386.07;181.77;;;13.60;1.00;;;;;;5044395;28;20211;-48
2022/09/04 04:15:49;;;;;;;380.00;180.90;;;13.80;1.00;;;;;;4968450;28;20275;-48
2022/09/04 04:18:38;;;;;;;365.93;181.23;;;13.50;1.00;;;;;;4969694;28;20236;-48
2022/09/04 04:21:09;;;;;;;372.37;183.23;;;13.50;1.00;;;;;;5032654;28;20276;-48
2022/09/04 04:23:55;;;;;;;368.00;181.03;;;13.50;1.00;;;;;;5027693;28;20222;-48
2022/09/04 04:26:39;;;;;;;380.43;185.93;;;13.20;1.00;;;;;;5053682;28;22777;-48
2022/09/04 04:29:24;;;;;;;432.83;207.83;;;13.30;99.90;;;;;;5055063;28;20222;-48
2022/09/04 04:32:16;;;;;;;425.37;204.50;;;13.20;1.00;;;;;;5039684;28;20209;-48
2022/09/04 04:35:07;;;;;;;335.53;162.73;;;13.30;52.50;;;;;;5054135;28;20223;-48
2022/09/04 04:37:55;;;;;;;377.07;181.63;;;13.30;29.70;;;;;;5002293;28;20207;-48
2022/09/04 04:40:58;;;;;;;389.27;187.77;;;13.30;99.90;;;;;;5049963;28;20206;-48
2022/09/04 04:44:01;;;;;;;418.23;198.60;;;13.50;99.90;;;;;;5045582;28;20214;-48
2022/09/04 04:46:53;;;;;;;364.33;180.00;;;13.40;1.00;;;;;;5042809;28;20301;-48
2022/09/04 04:49:25;;;;;;;345.93;171.03;;;13.40;99.90;;;;;;5046115;28;20218;-48
2022/09/04 04:52:17;;;;;;;417.90;201.50;;;13.40;99.90;;;;;;5044793;28;20241;-48
2022/09/04 04:55:10;;;;;;;409.50;201.00;;;13.20;1.00;;;;;;5042897;28;20649;-48
2022/09/04 04:58:14;;;;;;;358.40;177.83;;;13.50;1.00;;;;;;5042100;28;20216;-48
2022/09/04 05:00:54;;;;;;;399.23;194.87;;;14.60;1.00;;;;;;5046214;28;20804;-48
2022/09/04 05:03:41;;;;;;;365.53;175.83;;;13.50;93.90;;;;;;5049508;28;20175;-48
2022/09/04 05:06:35;;;;;;;377.90;181.37;;;13.50;1.00;;;;;;5042212;28;20242;-48
2022/09/04 05:09:21;;;;;;;443.40;207.67;;;13.80;15.20;;;;;;5039522;28;20247;-48
2022/09/04 05:12:25;;;;;;;387.77;193.87;;;13.70;1.00;;;;;;5039122;28;20226;-48
2022/09/04 05:14:58;;;;;;;388.97;190.60;;;13.60;1.00;;;;;;5027858;28;20692;-48
2022/09/04 05:17:24;;;;;;;399.83;196.70;;;;;;;;;;5054016;28;20288;-48
2022/09/04 05:20:17;;;;;;;422.97;209.97;;;13.80;1.00;;;;;;5039699;28;20305;-48
2022/09/04 05:23:08;;;;;;;376.73;188.27;;;13.80;99.90;;;;;;5054998;28;20549;-48
2022/09/04 05:25:56;;;;;;;404.73;196.50;;;13.80;99.90;;;;;;5052074;28;20265;-48
2022/09/04 05:28:37;;;;;;;448.13;212.67;;;13.80;1.00;;;;;;5041977;28;20300;-48
2022/09/04 05:31:45;;;;;;;448.47;212.43;;;12.90;1.00;;;;;;5044157;28;20217;-48
2022/09/04 05:34:21;;;;;;;422.75;199.75;;;13.90;71.30;;;;;;5049106;28;20219;-50
2022/09/04 05:37:05;;;;;;;337.50;171.87;;;13.80;98.30;;;;;;5043863;28;20210;-49
2022/09/04 05:40:03;;;;;;;402.53;191.93;;;13.90;1.00;;;;;;5045559;28;20245;-50
2022/09/04 05:42:31;;;;;;;420.33;204.43;;;13.90;99.90;;;;;;5038528;28;20198;-49
2022/09/04 05:45:19;;;;;;;423.57;205.87;;;14.00;99.90;;;;;;5055235;28;20371;-49
2022/09/04 05:48:02;;;;;;;441.90;213.70;;;14.00;99.90;;;;;;5022455;28;20230;-50
2022/09/04 05:50:57;;;;;;;435.87;214.80;;;14.00;99.90;;;;;;5039070;28;20742;-49
2022/09/04 05:53:51;;;;;;;403.17;208.90;;;14.00;1.00;;;;;;5045163;28;20503;-50
2022/09/04 05:56:37;;;;;;;428.33;219.87;;;14.10;99.90;;;;;;5040986;28;20249;-50
2022/09/04 05:59:03;;;;;;;401.17;204.97;;;;;;;;;;5044750;28;20692;-49
2022/09/04 06:01:30;;;;;;;386.97;196.30;;;;;;;;;;5051657;28;20380;-49
2022/09/04 06:04:35;;;;;;;457.27;241.23;;;14.30;1.00;;;;;;5042058;28;20226;-49
2022/09/04 06:07:34;;;;;;;440.47;234.10;;;14.40;1.00;;;;;;5049126;28;20240;-49
2022/09/04 06:10:21;;;;;;;444.27;227.93;;;14.30;99.90;;;;;;5049347;28;20758;-49
2022/09/04 06:13:20;;;;;;;435.73;226.73;;;14.50;99.90;;;;;;5041160;28;20286;-49
2022/09/04 06:16:01;;;;;;;386.60;197.70;;;14.50;99.90;;;;;;5054036;28;20692;-49
2022/09/04 06:19:00;;;;;;;356.53;181.33;;;14.60;99.90;;;;;;5052691;28;20232;-49
2022/09/04 06:21:53;;;;;;;435.47;223.57;;;14.60;99.90;;;;;;5041925;28;20378;-49
2022/09/04 06:24:33;;;;;;;394.83;201.60;;;14.50;1.00;;;;;;5039568;28;20769;-49
2022/09/04 06:27:16;;;;;;;427.43;216.93;;;14.70;1.00;;;;;;5045758;28;20211;-49
2022/09/04 06:30:10;;;;;;;401.43;201.80;;;14.60;1.00;;;;;;5043597;28;20584;-49
2022/09/04 06:32:57;;;;;;;395.77;201.53;;;14.60;1.00;;;;;;5057337;28;20523;-49
2022/09/04 06:35:51;;;;;;;393.80;205.53;;;14.60;1.00;;;;;;5050988;28;20246;-49
2022/09/04 06:38:40;;;;;;;387.40;196.13;;;14.50;99.90;;;;;;5043390;28;20226;-49
2022/09/04 06:41:32;;;;;;;452.00;233.63;;;14.70;1.00;;;;;;5040903;28;20407;-49
2022/09/04 06:44:25;;;;;;;432.97;221.20;;;15.10;99.90;;;;;;5038294;28;20740;-49
2022/09/04 06:47:10;;;;;;;401.77;203.90;;;15.00;1.00;;;;;;5054829;28;20339;-53
2022/09/04 06:50:03;;;;;;;434.57;218.17;;;15.10;99.90;;;;;;5048907;28;20210;-49
2022/09/04 06:52:54;;;;;;;379.60;190.93;;;15.00;1.00;;;;;;5044048;28;20280;-49
2022/09/04 06:55:46;;;;;;;365.63;185.87;;;15.20;1.00;;;;;;5048950;28;20460;-49
2022/09/04 06:58:44;;;;;;;407.55;201.73;;;15.30;99.90;;;;;;5042785;28;20292;-49
2022/09/04 07:01:39;;;;;;;424.50;210.37;;;15.30;99.90;;;;;;5042675;28;20218;-49
2022/09/04 07:04:32;;;;;;;492.80;241.40;;;15.40;1.00;;;;;;5036196;28;20225;-49
2022/09/04 07:07:20;;;;;;;414.43;209.77;;;15.40;1.00;;;;;;5044638;28;20381;-49
2022/09/04 07:09:52;;;;;;;369.93;190.47;;;15.70;1.00;;;;;;5054505;28;20840;-49
2022/09/04 07:12:51;;;;;;;374.73;192.87;;;15.60;1.00;;;;;;5051910;28;20206;-49
2022/09/04 07:15:45;;;;;;;433.40;219.87;;;18.40;99.90;;;;;;5053815;28;20232;-49
2022/09/04 07:18:42;;;;;;;438.43;218.20;;;15.90;1.00;;;;;;5050438;28;20261;-49
2022/09/04 07:21:19;;;;;;;460.00;226.73;;;15.70;1.00;;;;;;5052154;28;20683;-49
2022/09/04 07:24:22;;;;;;;416.00;216.40;;;15.80;1.00;;;;;;5042203;28;20222;-49
2022/09/04 07:27:00;;;;;;;406.38;206.43;;;16.00;99.90;;;;;;5038689;28;20242;-49
2022/09/04 07:29:40;;;;;;;425.93;223.30;;;16.20;99.90;;;;;;5045392;28;20218;-49
2022/09/04 07:32:27;;;;;;;462.65;232.38;;;16.30;1.00;;;;;;5044592;28;20253;-49
2022/09/04 07:35:07;;;;;;;416.00;218.70;;;16.70;1.00;;;;;;5050367;28;20751;-49
2022/09/04 07:37:45;;;;;;;410.33;210.55;;;16.70;1.00;;;;;;5058463;28;20638;-49
2022/09/04 07:40:37;;;;;;;426.58;222.77;;;16.90;44.50;;;;;;5051413;28;20288;-49
2022/09/04 07:43:08;;;;;;;418.02;223.45;;;17.00;1.00;;;;;;5052470;28;20691;-49
2022/09/04 07:45:46;;;;;;;430.55;233.05;;;17.00;1.00;;;;;;5054177;28;20712;-50
2022/09/04 07:48:16;;;;;;;397.73;216.07;;;17.10;1.00;;;;;;5046932;28;20234;-49
2022/09/04 07:51:02;;;;;;;425.92;229.63;;;17.30;99.90;;;;;;5060857;28;20874;-51
2022/09/04 07:54:02;;;;;;;463.97;234.07;;;17.40;66.90;;;;;;5055312;28;20305;-49
2022/09/04 07:56:46;;;;;;;402.70;212.60;;;17.50;99.90;;;;;;5064177;28;20250;-49
2022/09/04 07:59:38;;;;;;;439.08;227.85;;;17.70;1.00;;;;;;5052151;28;20293;-50
2022/09/04 08:02:21;;;;;;;465.15;249.55;;;17.70;1.00;;;;;;5037741;28;20959;-50
2022/09/04 08:05:01;;;;;;;451.40;231.55;;;17.70;99.90;;;;;;5036680;28;20218;-50
2022/09/04 08:07:33;;;;;;;418.45;214.52;;;17.30;99.90;;;;;;5038837;28;20587;-50
2022/09/04 08:09:59;;;;;;;457.75;230.57;;;;;;;;;;5034042;28;20299;-49
2022/09/04 08:12:38;;;;;;;396.00;205.45;;;17.80;1.00;;;;;;5039249;28;21141;-48
2022/09/04 08:15:18;;;;;;;431.65;223.10;;;17.90;1.00;;;;;;5041554;28;20214;-49
2022/09/04 08:17:53;;;;;;;421.25;219.90;;;18.50;1.00;;;;;;5045982;28;20218;-48
2022/09/04 08:20:41;;;;;;;421.30;220.27;;;18.80;99.90;;;;;;5053667;28;20210;-49
2022/09/04 08:23:35;;;;;;;457.35;237.90;;;19.00;2.70;;;;;;5043477;28;20210;-49
2022/09/04 08:26:48;;;;;;;494.60;264.80;;;19.20;99.90;;;;;;5051400;28;20221;-49
2022/09/04 08:29:35;;;;;;;454.02;232.73;;;19.00;1.00;;;;;;5050844;28;20219;-48
2022/09/04 08:32:18;;;;;;;440.40;248.85;;;18.90;99.90;;;;;;5046108;28;20226;-48
2022/09/04 08:35:03;;;;;;;411.70;236.68;;;18.90;1.00;;;;;;5048434;28;20355;-49
2022/09/04 08:37:49;;;;;;;441.35;242.93;;;19.00;1.00;;;;;;5049536;28;20215;-48
2022/09/04 08:40:22;;;;;;;416.02;224.02;;;19.00;1.00;;;;;;5054501;28;20527;-48
2022/09/04 08:43:23;;;;;;;453.75;246.35;;;19.10;10.60;;;;;;5039193;28;20179;-48
2022/09/04 08:46:02;;;;;;;444.00;249.00;;;19.00;21.70;;;;;;5036721;28;21872;-50
2022/09/04 08:49:00;;;;;;;427.08;240.65;;;19.20;1.00;;;;;;5031280;28;20186;-50
2022/09/04 08:55:08;;;;;;;364.08;183.75;;;19.20;99.90;;;;;;5026712;28;20224;-50
2022/09/04 08:58:01;;;;;;;366.65;191.68;;;19.60;1.00;;;;;;5032635;28;20164;-51
2022/09/04 09:00:54;;;;;;;376.13;189.70;;;19.50;1.00;;;;;;5032647;28;20161;-50
2022/09/04 09:03:57;;;;;;;376.40;186.43;;;19.60;48.60;;;;;;5032451;28;20239;-51
2022/09/04 09:06:58;;;;;;;344.48;173.75;;;19.60;1.00;;;;;;5032784;28;20509;-50
2022/09/04 09:09:54;;;;;;;358.42;181.88;;;19.80;1.00;;;;;;5032536;28;20172;-50
2022/09/04 09:12:52;;;;;;;369.95;186.32;;;19.80;1.00;;;;;;5032531;28;20362;-50
2022/09/04 09:16:15;;;;;;;363.20;186.88;;;19.80;1.00;;;;;;5032361;28;20683;-52
2022/09/04 09:19:07;;;;;;;369.63;203.38;;;20.10;1.00;;;;;;5031176;28;20184;-51
2022/09/04 09:21:44;;;;;;;368.77;198.43;;;20.20;1.00;;;;;;5032168;28;20159;-51
2022/09/04 09:24:24;;;;;;;344.80;187.65;;;20.40;1.00;;;;;;5032181;28;20180;-51
2022/09/04 09:27:28;;;;;;;375.55;201.68;;;20.40;99.90;;;;;;5031724;28;20184;-50
2022/09/04 09:30:15;;;;;;;343.35;181.48;;;20.50;99.90;;;;;;5032490;28;20164;-51
2022/09/04 09:32:57;;;;;;;352.55;186.77;;;20.60;1.00;;;;;;5031873;28;20157;-51
2022/09/04 09:36:05;;;;;;;365.33;193.10;;;20.50;1.00;;;;;;5032156;28;20204;-51
2022/09/04 09:38:41;;;;;;;357.75;192.60;;;20.80;1.00;;;;;;4993984;28;20245;-51
2022/09/04 09:41:33;;;;;;;359.80;192.85;;;20.90;1.00;;;;;;5032008;28;20168;-51
2022/09/04 09:44:20;;;;;;;354.85;193.15;;;20.90;1.00;;;;;;5032396;28;20220;-51
2022/09/04 09:47:04;;;;;;;357.52;192.05;;;20.80;99.90;;;;;;5032822;28;20164;-52
2022/09/04 09:49:58;;;;;;;345.48;184.45;;;20.90;1.00;;;;;;5032142;28;20171;-51
2022/09/04 09:52:52;;;;;;;342.65;192.07;;;21.10;1.00;;;;;;5032886;28;20183;-51
2022/09/04 09:55:39;;;;;;;322.90;181.02;;;21.10;1.00;;;;;;5031901;28;20779;-51
2022/09/04 09:58:26;;;;;;;345.48;192.10;;;21.20;1.00;;;;;;5032142;28;20539;-51
2022/09/04 10:01:19;;;;;;;359.88;203.65;;;21.60;1.00;;;;;;5030781;28;20637;-51
2022/09/04 10:03:51;;;;;;;369.02;210.27;;;21.70;1.00;;;;;;5032062;28;20192;-51
2022/09/04 10:06:46;;;;;;;358.35;200.05;;;21.50;99.90;;;;;;5031578;28;20180;-51
2022/09/04 10:09:38;;;;;;;359.55;207.93;;;21.50;99.70;;;;;;5032245;28;20243;-52
2022/09/04 10:12:22;;;;;;;345.52;199.32;;;21.70;99.90;;;;;;5032006;28;20168;-53
2022/09/04 10:15:22;;;;;;;364.08;211.50;;;21.80;99.90;;;;;;5032049;28;20680;-51
2022/09/04 10:18:25;;;;;;;328.15;191.50;;;21.90;99.90;;;;;;4990764;28;20184;-51
2022/09/04 10:21:11;;;;;;;351.90;205.30;;;22.20;99.90;;;;;;5031671;28;20176;-51
2022/09/04 10:24:17;;;;;;;351.52;201.35;;;22.10;40.60;;;;;;5031548;28;20189;-51
2022/09/04 10:27:13;;;;;;;337.60;199.93;;;22.50;1.00;;;;;;5031073;28;20184;-50
2022/09/04 10:29:51;;;;;;;356.50;211.10;;;22.20;99.90;;;;;;5031866;28;20165;-51
2022/09/04 10:32:35;;;;;;;370.35;206.88;;;22.50;99.90;;;;;;5031626;28;20172;-51
2022/09/04 10:35:24;;;;;;;348.17;199.70;;;22.40;99.90;;;;;;5031186;28;20204;-52
2022/09/04 10:38:01;;;;;;;361.58;206.60;;;22.50;99.90;;;;;;5031365;28;20192;-54
2022/09/04 10:40:46;;;;;;;332.85;193.75;;;22.70;1.00;;;;;;5031459;28;20647;-51
2022/09/04 10:43:43;;;;;;;366.27;208.75;;;22.70;99.90;;;;;;5030755;28;20656;-52
2022/09/04 10:46:32;;;;;;;353.50;205.25;;;22.80;1.00;;;;;;5031512;28;20168;-52
2022/09/04 10:49:18;;;;;;;370.30;212.85;;;23.00;1.00;;;;;;5013125;28;20183;-53
2022/09/04 10:52:04;;;;;;;361.13;209.85;;;23.00;99.90;;;;;;5030766;28;20176;-53
2022/09/04 10:55:05;;;;;;;333.05;197.10;;;23.00;99.90;;;;;;5030663;28;20287;-52
2022/09/04 10:57:57;;;;;;;370.35;222.32;;;23.00;99.90;;;;;;5030185;28;20667;-53
2022/09/04 11:00:49;;;;;;;389.58;226.60;;;23.30;1.00;;;;;;5019925;28;20176;-52
2022/09/04 11:03:57;;;;;;;354.40;219.15;;;23.40;99.90;;;;;;5031006;28;20161;-53
2022/09/04 11:06:51;;;;;;;382.42;227.30;;;23.70;99.90;;;;;;5029920;28;20240;-52
2022/09/04 11:09:54;;;;;;;364.70;226.88;;;23.80;99.90;;;;;;5030622;28;20152;-53
2022/09/04 11:12:30;;;;;;;376.90;225.43;;;23.90;1.00;;;;;;5030032;28;20168;-52
2022/09/04 11:15:12;;;;;;;364.15;220.15;;;24.10;1.00;;;;;;5030598;28;20218;-53
2022/09/04 11:17:55;;;;;;;367.42;220.85;;;23.90;99.90;;;;;;5030884;28;20310;-52
2022/09/04 11:20:45;;;;;;;353.40;212.60;;;23.90;1.00;;;;;;5030794;28;20820;-53
2022/09/04 11:23:42;;;;;;;367.88;228.40;;;23.80;99.90;;;;;;5030600;28;20650;-53
2022/09/04 11:26:46;;;;;;;360.25;228.05;;;23.70;99.90;;;;;;5030273;28;20176;-52
2022/09/04 11:29:17;;;;;;;359.95;232.75;;;23.80;99.90;;;;;;5030565;28;20183;-53
2022/09/04 11:32:14;;;;;;;368.98;224.32;;;23.80;99.90;;;;;;5030037;28;20189;-53
2022/09/04 11:35:18;;;;;;;363.55;224.43;;;23.90;99.90;;;;;;5030037;28;20458;-53
2022/09/04 11:38:07;;;;;;;344.02;225.90;;;24.00;99.90;;;;;;5030269;28;20163;-55
2022/09/04 11:41:17;;;;;;;371.48;243.98;;;24.00;99.90;;;;;;5030104;28;20153;-52
2022/09/04 11:44:00;;;;;;;376.70;238.73;;;24.20;1.00;;;;;;5029566;28;20223;-52
2022/09/04 11:46:45;;;;;;;362.98;239.20;;;24.30;99.90;;;;;;5031156;28;20527;-52
2022/09/04 11:49:41;;;;;;;353.33;233.88;;;24.30;99.90;;;;;;5031258;28;20183;-53
2022/09/04 11:52:10;;;;;;;376.60;238.95;;;24.80;99.90;;;;;;5030958;28;20215;-53
2022/09/04 11:55:05;;;;;;;359.58;235.05;;;24.40;99.90;;;;;;5030683;28;20218;-52
2022/09/04 11:58:05;;;;;;;340.75;232.02;;;24.50;99.90;;;;;;5031121;28;20160;-52
2022/09/04 12:01:14;;;;;;;361.77;242.07;;;27.10;1.00;;;;;;5031065;28;20187;-53
2022/09/04 12:04:13;;;;;;;364.77;234.15;;;24.90;1.00;;;;;;4967981;28;20200;-53
2022/09/04 12:07:17;;;;;;;348.08;224.45;;;25.30;1.00;;;;;;4997607;28;20587;-52
2022/09/04 12:10:10;;;;;;;351.67;230.02;;;25.60;1.00;;;;;;5031026;28;20168;-53
2022/09/04 12:13:01;;;;;;;338.15;212.23;;;25.90;99.90;;;;;;5030517;28;20169;-53
2022/09/04 12:15:53;;;;;;;349.25;229.88;;;25.90;99.90;;;;;;5030359;28;20223;-53
2022/09/04 12:18:33;;;;;;;341.67;222.57;;;25.90;99.90;;;;;;5031390;28;20266;-55
2022/09/04 12:21:05;;;;;;;349.20;227.93;;;26.00;99.90;;;;;;5030854;28;20662;-55
2022/09/04 12:24:00;;;;;;;344.73;227.95;;;26.30;99.90;;;;;;5030113;28;20189;-53
2022/09/04 12:27:06;;;;;;;367.70;237.95;;;26.30;1.00;;;;;;5030077;28;20551;-53
2022/09/04 12:29:59;;;;;;;346.60;225.45;;;26.10;1.00;;;;;;5031207;28;20308;-53
2022/09/04 12:33:05;;;;;;;346.33;228.73;;;25.70;1.00;;;;;;5030804;28;20616;-53
2022/09/04 12:35:47;;;;;;;348.75;228.13;;;25.70;1.00;;;;;;5030758;28;20265;-53
2022/09/04 12:38:24;;;;;;;342.77;221.90;;;25.60;1.00;;;;;;5030669;28;20145;-53
2022/09/04 12:41:15;;;;;;;343.30;220.50;;;25.70;1.00;;;;;;5030343;28;20179;-53
2022/09/04 12:43:41;;;;;;;347.33;222.13;;;;;;;;;;5030738;28;20710;-53
2022/09/04 12:46:09;;;;;;;357.10;229.73;;;;;;;;;;5030216;28;20263;-53
2022/09/04 12:48:35;;;;;;;352.33;219.48;;;;;;;;;;5030873;28;20715;-53
2022/09/04 12:51:20;;;;;;;345.63;218.20;;;25.80;1.00;;;;;;5030585;28;20267;-52
2022/09/04 12:54:08;;;;;;;334.38;215.60;;;25.90;1.00;;;;;;5030392;28;20225;-53
2022/09/04 12:56:41;;;;;;;336.85;222.57;;;;;;;;;;5029994;28;20192;-53
2022/09/04 12:59:08;;;;;;;350.88;228.75;;;;;;;;;;5030699;28;20647;-53
2022/09/04 13:02:00;;;;;;;340.05;225.23;;;25.80;1.00;;;;;;5030542;28;20699;-52
2022/09/04 13:04:26;;;;;;;349.42;225.85;;;;;;;;;;5030063;28;20210;-52
2022/09/04 13:07:44;;;;;;;337.17;222.48;;;26.50;1.00;;;;;;5030379;28;20656;-53
2022/09/04 13:10:10;;;;;;;333.20;222.77;;;;;;;;;;5030129;28;20176;-53
2022/09/04 13:12:41;;;;;;;339.42;231.93;;;27.10;1.00;;;;;;5030287;28;20179;-52
2022/09/04 13:15:37;;;;;;;345.40;234.75;;;27.30;1.00;;;;;;5030257;28;20239;-53
2022/09/04 13:18:17;;;;;;;333.77;221.13;;;27.40;1.00;;;;;;5030450;28;20153;-53
2022/09/04 13:21:07;;;;;;;344.63;229.75;;;27.60;1.00;;;;;;5030370;28;20165;-53
2022/09/04 13:23:59;;;;;;;328.58;220.93;;;27.70;1.00;;;;;;5030445;28;20207;-53
2022/09/04 13:26:31;;;;;;;346.70;240.02;;;27.60;1.00;;;;;;5029757;28;20506;-53
2022/09/04 13:29:28;;;;;;;339.55;246.88;;;27.20;1.00;;;;;;5030630;28;20176;-52
2022/09/04 13:31:58;;;;;;;345.38;247.27;;;26.40;1.00;;;;;;5030492;28;20161;-52
2022/09/04 13:34:36;;;;;;;343.98;243.18;;;26.40;1.00;;;;;;5030425;28;20279;-51
2022/09/04 13:37:34;;;;;;;349.75;247.32;;;27.20;1.00;;;;;;5034294;28;20199;-51
2022/09/04 13:40:06;;;;;;;337.50;242.93;;;27.70;1.00;;;;;;5034188;28;20176;-52
2022/09/04 13:42:33;;;;;;;327.88;231.52;;;;;;;;;;5033389;28;20469;-52
2022/09/04 13:45:22;;;;;;;328.85;235.38;;;27.60;1.00;;;;;;5033859;28;20525;-51
2022/09/04 13:48:12;;;;;;;328.27;231.30;;;27.20;1.00;;;;;;5033671;28;20182;-52
2022/09/04 13:50:52;;;;;;;328.20;233.73;;;27.30;1.00;;;;;;5033694;28;20672;-52
2022/09/04 13:53:38;;;;;;;323.63;227.20;;;27.70;1.00;;;;;;5033598;28;20266;-52
2022/09/04 13:56:15;;;;;;;343.23;250.27;;;28.50;1.00;;;;;;5033520;28;20290;-52
2022/09/04 13:58:50;;;;;;;343.42;248.38;;;29.20;1.00;;;;;;5033477;28;20156;-52